sensor_id;sensor_type;location;lat;lon;timestamp;P1;durP1;ratioP1;P2;durP2;ratioP2
32746;SDS011;19118;50.860;13.662;2023-03-25T00:02:18;8.02;;;2.35;;
32746;SDS011;19118;50.860;13.662;2023-03-25T00:07:20;11.35;;;2.65;;
32746;SDS011;19118;50.860;13.662;2023-03-25T00:12:20;13.32;;;3.13;;
32746;SDS011;19118;50.860;13.662;2023-03-25T00:17:21;13.53;;;2.50;;
32746;SDS011;19118;50.860;13.662;2023-03-25T00:22:22;10.57;;;2.35;;
32746;SDS011;19118;50.860;13.662;2023-03-25T00:27:23;6.28;;;2.22;;
32746;SDS011;19118;50.860;13.662;2023-03-25T00:32:23;10.37;;;2.33;;
32746;SDS011;19118;50.860;13.662;2023-03-25T00:37:23;8.23;;;2.58;;
32746;SDS011;19118;50.860;13.662;2023-03-25T00:42:24;15.38;;;3.25;;
32746;SDS011;19118;50.860;13.662;2023-03-25T00:47:28;14.43;;;2.58;;
32746;SDS011;19118;50.860;13.662;2023-03-25T00:52:30;12.95;;;2.83;;
32746;SDS011;19118;50.860;13.662;2023-03-25T00:57:31;12.77;;;2.90;;
32746;SDS011;19118;50.860;13.662;2023-03-25T01:02:31;12.40;;;2.90;;
32746;SDS011;19118;50.860;13.662;2023-03-25T01:07:32;12.00;;;2.45;;
32746;SDS011;19118;50.860;13.662;2023-03-25T01:12:33;7.78;;;2.30;;
32746;SDS011;19118;50.860;13.662;2023-03-25T01:17:33;14.73;;;3.73;;
32746;SDS011;19118;50.860;13.662;2023-03-25T01:22:36;7.88;;;2.38;;
32746;SDS011;19118;50.860;13.662;2023-03-25T01:27:36;13.75;;;3.13;;
32746;SDS011;19118;50.860;13.662;2023-03-25T01:32:37;12.40;;;3.13;;
32746;SDS011;19118;50.860;13.662;2023-03-25T01:37:37;12.87;;;2.50;;
32746;SDS011;19118;50.860;13.662;2023-03-25T01:42:37;5.47;;;2.78;;
32746;SDS011;19118;50.860;13.662;2023-03-25T01:47:38;12.30;;;3.10;;
32746;SDS011;19118;50.860;13.662;2023-03-25T01:52:39;11.77;;;3.00;;
32746;SDS011;19118;50.860;13.662;2023-03-25T01:57:43;7.47;;;2.00;;
32746;SDS011;19118;50.860;13.662;2023-03-25T02:02:45;13.23;;;2.72;;
32746;SDS011;19118;50.860;13.662;2023-03-25T02:07:46;9.82;;;2.35;;
32746;SDS011;19118;50.860;13.662;2023-03-25T02:12:47;9.88;;;1.83;;
32746;SDS011;19118;50.860;13.662;2023-03-25T02:28:34;10.27;;;2.42;;
32746;SDS011;19118;50.860;13.662;2023-03-25T02:33:43;6.32;;;2.40;;
32746;SDS011;19118;50.860;13.662;2023-03-25T02:38:51;7.25;;;2.38;;
32746;SDS011;19118;50.860;13.662;2023-03-25T02:49:27;8.15;;;2.50;;
32746;SDS011;19118;50.860;13.662;2023-03-25T02:54:30;9.13;;;2.25;;
32746;SDS011;19118;50.860;13.662;2023-03-25T02:59:33;10.70;;;1.60;;
32746;SDS011;19118;50.860;13.662;2023-03-25T03:04:44;10.35;;;1.90;;
32746;SDS011;19118;50.860;13.662;2023-03-25T03:09:56;6.13;;;1.52;;
32746;SDS011;19118;50.860;13.662;2023-03-25T03:20:12;6.10;;;1.20;;
32746;SDS011;19118;50.860;13.662;2023-03-25T03:25:34;3.05;;;1.40;;
32746;SDS011;19118;50.860;13.662;2023-03-25T03:35:58;6.00;;;1.55;;
32746;SDS011;19118;50.860;13.662;2023-03-25T03:41:04;6.20;;;1.30;;
32746;SDS011;19118;50.860;13.662;2023-03-25T03:46:15;2.92;;;1.08;;
32746;SDS011;19118;50.860;13.662;2023-03-25T03:56:25;3.83;;;0.90;;
32746;SDS011;19118;50.860;13.662;2023-03-25T04:01:47;4.00;;;0.98;;
32746;SDS011;19118;50.860;13.662;2023-03-25T04:06:55;2.78;;;0.80;;
32746;SDS011;19118;50.860;13.662;2023-03-25T04:17:16;3.03;;;0.77;;
32746;SDS011;19118;50.860;13.662;2023-03-25T04:22:17;6.50;;;1.33;;
32746;SDS011;19118;50.860;13.662;2023-03-25T04:27:17;3.33;;;0.93;;
32746;SDS011;19118;50.860;13.662;2023-03-25T04:32:18;2.92;;;0.80;;
32746;SDS011;19118;50.860;13.662;2023-03-25T04:37:19;10.10;;;1.25;;
32746;SDS011;19118;50.860;13.662;2023-03-25T04:42:19;4.20;;;0.97;;
32746;SDS011;19118;50.860;13.662;2023-03-25T04:47:20;5.38;;;0.93;;
32746;SDS011;19118;50.860;13.662;2023-03-25T04:52:23;3.90;;;0.95;;
32746;SDS011;19118;50.860;13.662;2023-03-25T04:57:23;3.15;;;0.63;;
32746;SDS011;19118;50.860;13.662;2023-03-25T05:02:25;6.35;;;0.77;;
32746;SDS011;19118;50.860;13.662;2023-03-25T05:07:26;5.60;;;0.77;;
32746;SDS011;19118;50.860;13.662;2023-03-25T05:12:28;2.90;;;0.90;;
32746;SDS011;19118;50.860;13.662;2023-03-25T05:17:29;2.38;;;0.60;;
32746;SDS011;19118;50.860;13.662;2023-03-25T05:22:29;3.33;;;0.50;;
32746;SDS011;19118;50.860;13.662;2023-03-25T05:27:29;0.83;;;0.40;;
32746;SDS011;19118;50.860;13.662;2023-03-25T05:32:33;0.93;;;0.50;;
32746;SDS011;19118;50.860;13.662;2023-03-25T05:37:33;2.35;;;0.73;;
32746;SDS011;19118;50.860;13.662;2023-03-25T05:42:33;5.40;;;0.67;;
32746;SDS011;19118;50.860;13.662;2023-03-25T05:47:34;2.58;;;0.40;;
32746;SDS011;19118;50.860;13.662;2023-03-25T05:52:34;2.13;;;0.53;;
32746;SDS011;19118;50.860;13.662;2023-03-25T05:57:35;1.55;;;0.43;;
32746;SDS011;19118;50.860;13.662;2023-03-25T06:02:36;1.58;;;0.47;;
32746;SDS011;19118;50.860;13.662;2023-03-25T06:07:42;2.03;;;0.77;;
32746;SDS011;19118;50.860;13.662;2023-03-25T06:12:45;3.50;;;0.50;;
32746;SDS011;19118;50.860;13.662;2023-03-25T06:17:46;2.55;;;0.52;;
32746;SDS011;19118;50.860;13.662;2023-03-25T06:22:46;3.87;;;0.80;;
32746;SDS011;19118;50.860;13.662;2023-03-25T06:27:47;2.50;;;0.70;;
32746;SDS011;19118;50.860;13.662;2023-03-25T06:32:49;5.47;;;0.95;;
32746;SDS011;19118;50.860;13.662;2023-03-25T06:37:51;4.80;;;0.73;;
32746;SDS011;19118;50.860;13.662;2023-03-25T06:43:00;11.13;;;1.00;;
32746;SDS011;19118;50.860;13.662;2023-03-25T06:48:19;9.07;;;1.27;;
32746;SDS011;19118;50.860;13.662;2023-03-25T06:53:19;4.22;;;0.80;;
32746;SDS011;19118;50.860;13.662;2023-03-25T06:58:19;6.40;;;1.10;;
32746;SDS011;19118;50.860;13.662;2023-03-25T07:03:20;15.63;;;1.48;;
32746;SDS011;19118;50.860;13.662;2023-03-25T07:08:20;14.38;;;1.05;;
32746;SDS011;19118;50.860;13.662;2023-03-25T07:13:21;3.58;;;0.80;;
32746;SDS011;19118;50.860;13.662;2023-03-25T07:18:21;11.35;;;0.90;;
32746;SDS011;19118;50.860;13.662;2023-03-25T07:23:22;16.02;;;2.55;;
32746;SDS011;19118;50.860;13.662;2023-03-25T07:28:22;5.32;;;1.20;;
32746;SDS011;19118;50.860;13.662;2023-03-25T07:33:22;2.40;;;0.80;;
32746;SDS011;19118;50.860;13.662;2023-03-25T07:38:23;4.18;;;1.15;;
32746;SDS011;19118;50.860;13.662;2023-03-25T07:43:23;3.47;;;0.80;;
32746;SDS011;19118;50.860;13.662;2023-03-25T07:48:29;4.47;;;0.90;;
32746;SDS011;19118;50.860;13.662;2023-03-25T07:53:30;5.20;;;1.08;;
32746;SDS011;19118;50.860;13.662;2023-03-25T07:58:30;3.60;;;0.82;;
32746;SDS011;19118;50.860;13.662;2023-03-25T08:03:30;5.80;;;0.90;;
32746;SDS011;19118;50.860;13.662;2023-03-25T08:08:32;5.32;;;0.75;;
32746;SDS011;19118;50.860;13.662;2023-03-25T08:13:33;3.08;;;0.88;;
32746;SDS011;19118;50.860;13.662;2023-03-25T08:18:33;2.50;;;0.90;;
32746;SDS011;19118;50.860;13.662;2023-03-25T08:23:33;4.63;;;0.85;;
32746;SDS011;19118;50.860;13.662;2023-03-25T08:28:36;6.22;;;0.85;;
32746;SDS011;19118;50.860;13.662;2023-03-25T08:33:36;1.52;;;0.65;;
32746;SDS011;19118;50.860;13.662;2023-03-25T08:38:40;1.70;;;0.50;;
32746;SDS011;19118;50.860;13.662;2023-03-25T08:43:41;6.18;;;1.40;;
32746;SDS011;19118;50.860;13.662;2023-03-25T08:48:41;2.53;;;0.60;;
32746;SDS011;19118;50.860;13.662;2023-03-25T08:53:42;4.28;;;0.60;;
32746;SDS011;19118;50.860;13.662;2023-03-25T08:58:43;2.20;;;0.60;;
32746;SDS011;19118;50.860;13.662;2023-03-25T09:03:43;5.70;;;0.70;;
32746;SDS011;19118;50.860;13.662;2023-03-25T09:08:43;2.73;;;0.83;;
32746;SDS011;19118;50.860;13.662;2023-03-25T09:13:44;5.88;;;1.00;;
32746;SDS011;19118;50.860;13.662;2023-03-25T09:18:44;2.90;;;0.70;;
32746;SDS011;19118;50.860;13.662;2023-03-25T09:23:44;2.33;;;0.80;;
32746;SDS011;19118;50.860;13.662;2023-03-25T09:28:45;5.50;;;1.10;;
32746;SDS011;19118;50.860;13.662;2023-03-25T09:33:46;0.50;;;0.50;;
32746;SDS011;19118;50.860;13.662;2023-03-25T09:38:47;3.33;;;1.00;;
32746;SDS011;19118;50.860;13.662;2023-03-25T09:43:54;5.22;;;1.35;;
32746;SDS011;19118;50.860;13.662;2023-03-25T09:49:02;8.55;;;1.10;;
32746;SDS011;19118;50.860;13.662;2023-03-25T09:59:39;3.08;;;0.65;;
32746;SDS011;19118;50.860;13.662;2023-03-25T10:15:35;5.70;;;0.82;;
32746;SDS011;19118;50.860;13.662;2023-03-25T10:25:43;3.92;;;0.82;;
32746;SDS011;19118;50.860;13.662;2023-03-25T10:30:47;3.13;;;0.90;;
32746;SDS011;19118;50.860;13.662;2023-03-25T10:35:52;4.32;;;0.90;;
32746;SDS011;19118;50.860;13.662;2023-03-25T10:46:30;2.60;;;0.75;;
32746;SDS011;19118;50.860;13.662;2023-03-25T11:01:43;3.17;;;0.77;;
32746;SDS011;19118;50.860;13.662;2023-03-25T11:06:45;2.90;;;0.63;;
32746;SDS011;19118;50.860;13.662;2023-03-25T11:11:53;1.17;;;0.70;;
32746;SDS011;19118;50.860;13.662;2023-03-25T11:16:57;1.25;;;0.60;;
32746;SDS011;19118;50.860;13.662;2023-03-25T11:22:01;4.15;;;0.95;;
32746;SDS011;19118;50.860;13.662;2023-03-25T11:27:07;1.13;;;0.43;;
32746;SDS011;19118;50.860;13.662;2023-03-25T11:32:12;1.17;;;0.50;;
32746;SDS011;19118;50.860;13.662;2023-03-25T11:37:18;1.58;;;0.43;;
32746;SDS011;19118;50.860;13.662;2023-03-25T11:42:31;0.88;;;0.43;;
32746;SDS011;19118;50.860;13.662;2023-03-25T11:47:35;0.57;;;0.50;;
32746;SDS011;19118;50.860;13.662;2023-03-25T11:52:42;2.03;;;0.60;;
32746;SDS011;19118;50.860;13.662;2023-03-25T11:57:45;0.60;;;0.40;;
32746;SDS011;19118;50.860;13.662;2023-03-25T12:02:47;1.00;;;0.52;;
32746;SDS011;19118;50.860;13.662;2023-03-25T12:07:48;1.70;;;0.50;;
32746;SDS011;19118;50.860;13.662;2023-03-25T12:13:10;0.95;;;0.47;;
32746;SDS011;19118;50.860;13.662;2023-03-25T12:29:29;2.20;;;0.75;;
32746;SDS011;19118;50.860;13.662;2023-03-25T12:35:03;3.28;;;0.63;;
32746;SDS011;19118;50.860;13.662;2023-03-25T13:08:35;2.63;;;0.60;;
32746;SDS011;19118;50.860;13.662;2023-03-25T13:13:44;3.45;;;0.93;;
32746;SDS011;19118;50.860;13.662;2023-03-25T13:18:48;1.10;;;0.52;;
32746;SDS011;19118;50.860;13.662;2023-03-25T13:23:55;3.88;;;0.85;;
32746;SDS011;19118;50.860;13.662;2023-03-25T13:29:03;1.13;;;0.52;;
32746;SDS011;19118;50.860;13.662;2023-03-25T13:45:23;3.65;;;0.80;;
32746;SDS011;19118;50.860;13.662;2023-03-25T13:50:26;2.60;;;0.60;;
32746;SDS011;19118;50.860;13.662;2023-03-25T13:55:34;2.22;;;0.93;;
32746;SDS011;19118;50.860;13.662;2023-03-25T14:00:57;8.32;;;0.98;;
32746;SDS011;19118;50.860;13.662;2023-03-25T14:11:14;2.20;;;0.63;;
32746;SDS011;19118;50.860;13.662;2023-03-25T14:16:17;3.35;;;0.73;;
32746;SDS011;19118;50.860;13.662;2023-03-25T14:21:27;5.47;;;1.23;;
32746;SDS011;19118;50.860;13.662;2023-03-25T14:26:27;9.73;;;1.17;;
32746;SDS011;19118;50.860;13.662;2023-03-25T14:31:29;5.50;;;0.90;;
32746;SDS011;19118;50.860;13.662;2023-03-25T14:41:57;4.30;;;0.43;;
32746;SDS011;19118;50.860;13.662;2023-03-25T14:52:17;1.23;;;0.40;;
32746;SDS011;19118;50.860;13.662;2023-03-25T14:57:22;0.98;;;0.68;;
32746;SDS011;19118;50.860;13.662;2023-03-25T15:02:31;3.42;;;0.50;;
32746;SDS011;19118;50.860;13.662;2023-03-25T15:07:50;0.38;;;0.22;;
32746;SDS011;19118;50.860;13.662;2023-03-25T15:13:02;3.90;;;0.40;;
32746;SDS011;19118;50.860;13.662;2023-03-25T15:18:07;4.50;;;0.50;;
32746;SDS011;19118;50.860;13.662;2023-03-25T15:33:33;5.35;;;0.50;;
32746;SDS011;19118;50.860;13.662;2023-03-25T15:59:53;5.05;;;0.80;;
32746;SDS011;19118;50.860;13.662;2023-03-25T16:04:58;2.80;;;0.90;;
32746;SDS011;19118;50.860;13.662;2023-03-25T16:10:13;0.93;;;0.60;;
32746;SDS011;19118;50.860;13.662;2023-03-25T16:15:17;7.05;;;0.90;;
32746;SDS011;19118;50.860;13.662;2023-03-25T16:20:26;6.63;;;1.10;;
32746;SDS011;19118;50.860;13.662;2023-03-25T16:25:38;7.45;;;0.70;;
32746;SDS011;19118;50.860;13.662;2023-03-25T16:30:41;2.60;;;0.70;;
32746;SDS011;19118;50.860;13.662;2023-03-25T16:35:51;3.58;;;1.00;;
32746;SDS011;19118;50.860;13.662;2023-03-25T16:41:06;6.90;;;0.70;;
32746;SDS011;19118;50.860;13.662;2023-03-25T16:46:11;3.60;;;1.05;;
32746;SDS011;19118;50.860;13.662;2023-03-25T16:51:21;3.17;;;1.23;;
32746;SDS011;19118;50.860;13.662;2023-03-25T16:56:31;5.20;;;1.00;;
32746;SDS011;19118;50.860;13.662;2023-03-25T17:01:40;6.40;;;2.45;;
32746;SDS011;19118;50.860;13.662;2023-03-25T17:06:44;3.65;;;1.20;;
32746;SDS011;19118;50.860;13.662;2023-03-25T17:11:58;3.40;;;1.10;;
32746;SDS011;19118;50.860;13.662;2023-03-25T17:17:08;5.07;;;1.95;;
32746;SDS011;19118;50.860;13.662;2023-03-25T17:32:26;9.05;;;1.33;;
32746;SDS011;19118;50.860;13.662;2023-03-25T17:37:26;2.58;;;1.27;;
32746;SDS011;19118;50.860;13.662;2023-03-25T17:42:28;2.38;;;1.42;;
32746;SDS011;19118;50.860;13.662;2023-03-25T17:47:31;2.60;;;1.00;;
32746;SDS011;19118;50.860;13.662;2023-03-25T17:52:32;6.00;;;1.27;;
32746;SDS011;19118;50.860;13.662;2023-03-25T17:57:35;3.75;;;1.10;;
32746;SDS011;19118;50.860;13.662;2023-03-25T18:02:36;6.05;;;1.73;;
32746;SDS011;19118;50.860;13.662;2023-03-25T18:07:37;6.78;;;1.70;;
32746;SDS011;19118;50.860;13.662;2023-03-25T18:12:38;5.72;;;1.27;;
32746;SDS011;19118;50.860;13.662;2023-03-25T18:17:39;4.78;;;1.40;;
32746;SDS011;19118;50.860;13.662;2023-03-25T18:22:39;6.47;;;1.50;;
32746;SDS011;19118;50.860;13.662;2023-03-25T18:27:39;7.07;;;1.70;;
32746;SDS011;19118;50.860;13.662;2023-03-25T18:32:40;4.88;;;1.60;;
32746;SDS011;19118;50.860;13.662;2023-03-25T18:37:40;4.82;;;1.70;;
32746;SDS011;19118;50.860;13.662;2023-03-25T18:42:41;2.92;;;1.70;;
32746;SDS011;19118;50.860;13.662;2023-03-25T18:47:41;3.87;;;1.37;;
32746;SDS011;19118;50.860;13.662;2023-03-25T18:52:42;4.45;;;1.08;;
32746;SDS011;19118;50.860;13.662;2023-03-25T18:57:42;10.13;;;1.75;;
32746;SDS011;19118;50.860;13.662;2023-03-25T19:02:43;4.80;;;1.33;;
32746;SDS011;19118;50.860;13.662;2023-03-25T19:07:44;10.15;;;3.55;;
32746;SDS011;19118;50.860;13.662;2023-03-25T19:12:45;10.82;;;2.70;;
32746;SDS011;19118;50.860;13.662;2023-03-25T19:17:46;6.43;;;1.98;;
32746;SDS011;19118;50.860;13.662;2023-03-25T19:22:47;3.25;;;0.98;;
32746;SDS011;19118;50.860;13.662;2023-03-25T19:27:48;6.20;;;1.08;;
32746;SDS011;19118;50.860;13.662;2023-03-25T19:32:50;6.57;;;0.95;;
32746;SDS011;19118;50.860;13.662;2023-03-25T19:37:52;4.50;;;1.00;;
32746;SDS011;19118;50.860;13.662;2023-03-25T19:42:56;4.03;;;1.00;;
32746;SDS011;19118;50.860;13.662;2023-03-25T19:47:57;2.75;;;0.73;;
32746;SDS011;19118;50.860;13.662;2023-03-25T19:52:59;2.53;;;1.00;;
32746;SDS011;19118;50.860;13.662;2023-03-25T19:58:01;6.50;;;1.60;;
32746;SDS011;19118;50.860;13.662;2023-03-25T20:03:01;12.07;;;1.25;;
32746;SDS011;19118;50.860;13.662;2023-03-25T20:08:02;5.20;;;1.08;;
32746;SDS011;19118;50.860;13.662;2023-03-25T20:13:03;2.25;;;0.77;;
32746;SDS011;19118;50.860;13.662;2023-03-25T20:18:03;3.40;;;0.88;;
32746;SDS011;19118;50.860;13.662;2023-03-25T20:23:05;5.68;;;1.10;;
32746;SDS011;19118;50.860;13.662;2023-03-25T20:28:06;3.47;;;0.93;;
32746;SDS011;19118;50.860;13.662;2023-03-25T20:33:06;2.75;;;0.70;;
32746;SDS011;19118;50.860;13.662;2023-03-25T20:38:06;3.07;;;0.77;;
32746;SDS011;19118;50.860;13.662;2023-03-25T20:43:07;4.80;;;1.15;;
32746;SDS011;19118;50.860;13.662;2023-03-25T20:48:08;5.13;;;0.95;;
32746;SDS011;19118;50.860;13.662;2023-03-25T20:53:08;6.65;;;1.90;;
32746;SDS011;19118;50.860;13.662;2023-03-25T20:58:09;4.20;;;1.40;;
32746;SDS011;19118;50.860;13.662;2023-03-25T21:03:11;11.68;;;1.65;;
32746;SDS011;19118;50.860;13.662;2023-03-25T21:08:14;7.18;;;1.40;;
32746;SDS011;19118;50.860;13.662;2023-03-25T21:13:14;6.65;;;1.48;;
32746;SDS011;19118;50.860;13.662;2023-03-25T21:18:15;16.83;;;1.90;;
32746;SDS011;19118;50.860;13.662;2023-03-25T21:23:15;5.20;;;1.47;;
32746;SDS011;19118;50.860;13.662;2023-03-25T21:28:17;8.07;;;1.48;;
32746;SDS011;19118;50.860;13.662;2023-03-25T21:33:17;11.57;;;1.87;;
32746;SDS011;19118;50.860;13.662;2023-03-25T21:38:17;15.83;;;3.10;;
32746;SDS011;19118;50.860;13.662;2023-03-25T21:43:18;8.27;;;1.57;;
32746;SDS011;19118;50.860;13.662;2023-03-25T21:48:18;13.37;;;1.70;;
32746;SDS011;19118;50.860;13.662;2023-03-25T21:53:21;4.55;;;1.13;;
32746;SDS011;19118;50.860;13.662;2023-03-25T21:58:23;6.68;;;1.38;;
32746;SDS011;19118;50.860;13.662;2023-03-25T22:03:24;5.43;;;1.63;;
32746;SDS011;19118;50.860;13.662;2023-03-25T22:08:28;5.30;;;1.58;;
32746;SDS011;19118;50.860;13.662;2023-03-25T22:13:29;13.23;;;1.80;;
32746;SDS011;19118;50.860;13.662;2023-03-25T22:18:29;8.38;;;1.60;;
32746;SDS011;19118;50.860;13.662;2023-03-25T22:23:30;12.85;;;3.00;;
32746;SDS011;19118;50.860;13.662;2023-03-25T22:28:30;5.68;;;1.00;;
32746;SDS011;19118;50.860;13.662;2023-03-25T22:33:31;17.05;;;2.65;;
32746;SDS011;19118;50.860;13.662;2023-03-25T22:38:33;8.98;;;1.38;;
32746;SDS011;19118;50.860;13.662;2023-03-25T22:43:34;7.05;;;1.65;;
32746;SDS011;19118;50.860;13.662;2023-03-25T22:48:35;6.47;;;1.55;;
32746;SDS011;19118;50.860;13.662;2023-03-25T22:53:39;8.65;;;1.33;;
32746;SDS011;19118;50.860;13.662;2023-03-25T22:58:40;7.90;;;1.38;;
32746;SDS011;19118;50.860;13.662;2023-03-25T23:03:40;6.40;;;1.35;;
32746;SDS011;19118;50.860;13.662;2023-03-25T23:08:41;7.38;;;1.38;;
32746;SDS011;19118;50.860;13.662;2023-03-25T23:13:42;5.00;;;1.17;;
32746;SDS011;19118;50.860;13.662;2023-03-25T23:18:45;5.05;;;1.17;;
32746;SDS011;19118;50.860;13.662;2023-03-25T23:23:46;3.20;;;1.17;;
32746;SDS011;19118;50.860;13.662;2023-03-25T23:28:48;6.63;;;1.48;;
32746;SDS011;19118;50.860;13.662;2023-03-25T23:33:49;1.98;;;1.23;;
32746;SDS011;19118;50.860;13.662;2023-03-25T23:38:50;10.52;;;2.00;;
32746;SDS011;19118;50.860;13.662;2023-03-25T23:43:52;15.57;;;1.90;;
32746;SDS011;19118;50.860;13.662;2023-03-25T23:48:53;10.95;;;1.38;;
32746;SDS011;19118;50.860;13.662;2023-03-25T23:53:54;8.70;;;1.55;;
32746;SDS011;19118;50.860;13.662;2023-03-25T23:58:54;4.05;;;1.30;;
